sensor_id;sensor_type;location;lat;lon;timestamp;temperature;humidity
76239;SHT30;65043;48.392;-4.472;2023-02-10T00:01:16;11.25;76.23
76239;SHT30;65043;48.392;-4.472;2023-02-10T00:03:42;11.23;76.02
76239;SHT30;65043;48.392;-4.472;2023-02-10T00:06:09;11.23;76.22
76239;SHT30;65043;48.392;-4.472;2023-02-10T00:08:35;11.18;76.32
76239;SHT30;65043;48.392;-4.472;2023-02-10T00:11:03;11.15;76.41
76239;SHT30;65043;48.392;-4.472;2023-02-10T00:13:29;11.15;76.57
76239;SHT30;65043;48.392;-4.472;2023-02-10T00:15:57;11.14;76.40
76239;SHT30;65043;48.392;-4.472;2023-02-10T00:18:22;11.13;76.50
76239;SHT30;65043;48.392;-4.472;2023-02-10T00:20:48;11.11;76.58
76239;SHT30;65043;48.392;-4.472;2023-02-10T00:23:13;11.07;76.46
76239;SHT30;65043;48.392;-4.472;2023-02-10T00:25:39;11.06;76.31
76239;SHT30;65043;48.392;-4.472;2023-02-10T00:28:04;11.04;76.39
76239;SHT30;65043;48.392;-4.472;2023-02-10T00:30:30;11.04;76.49
76239;SHT30;65043;48.392;-4.472;2023-02-10T00:32:56;11.00;76.42
76239;SHT30;65043;48.392;-4.472;2023-02-10T00:35:21;10.99;76.62
76239;SHT30;65043;48.392;-4.472;2023-02-10T00:37:47;10.96;76.49
76239;SHT30;65043;48.392;-4.472;2023-02-10T00:40:12;10.93;76.73
76239;SHT30;65043;48.392;-4.472;2023-02-10T00:42:38;10.92;76.64
76239;SHT30;65043;48.392;-4.472;2023-02-10T00:45:04;10.94;76.72
76239;SHT30;65043;48.392;-4.472;2023-02-10T00:47:29;10.93;76.84
76239;SHT30;65043;48.392;-4.472;2023-02-10T00:49:55;10.92;76.85
76239;SHT30;65043;48.392;-4.472;2023-02-10T00:52:21;10.94;76.71
76239;SHT30;65043;48.392;-4.472;2023-02-10T00:54:47;10.93;76.72
76239;SHT30;65043;48.392;-4.472;2023-02-10T00:57:12;10.90;76.92
76239;SHT30;65043;48.392;-4.472;2023-02-10T00:59:37;10.92;76.95
76239;SHT30;65043;48.392;-4.472;2023-02-10T01:02:03;10.93;76.89
76239;SHT30;65043;48.392;-4.472;2023-02-10T01:04:28;10.90;76.91
76239;SHT30;65043;48.392;-4.472;2023-02-10T01:06:54;10.93;76.70
76239;SHT30;65043;48.392;-4.472;2023-02-10T01:09:19;10.90;76.91
76239;SHT30;65043;48.392;-4.472;2023-02-10T01:11:44;10.92;76.78
76239;SHT30;65043;48.392;-4.472;2023-02-10T01:14:10;10.92;77.06
76239;SHT30;65043;48.392;-4.472;2023-02-10T01:16:36;10.89;76.97
76239;SHT30;65043;48.392;-4.472;2023-02-10T01:19:02;10.90;76.99
76239;SHT30;65043;48.392;-4.472;2023-02-10T01:21:28;10.89;76.97
76239;SHT30;65043;48.392;-4.472;2023-02-10T01:23:55;10.89;76.96
76239;SHT30;65043;48.392;-4.472;2023-02-10T01:26:21;10.89;77.07
76239;SHT30;65043;48.392;-4.472;2023-02-10T01:28:46;10.89;77.02
76239;SHT30;65043;48.392;-4.472;2023-02-10T01:31:15;10.90;77.19
76239;SHT30;65043;48.392;-4.472;2023-02-10T01:33:41;10.92;77.11
76239;SHT30;65043;48.392;-4.472;2023-02-10T01:36:09;10.89;76.79
76239;SHT30;65043;48.392;-4.472;2023-02-10T01:38:35;10.89;76.99
76239;SHT30;65043;48.392;-4.472;2023-02-10T01:41:02;10.89;76.84
76239;SHT30;65043;48.392;-4.472;2023-02-10T01:43:27;10.89;76.78
76239;SHT30;65043;48.392;-4.472;2023-02-10T01:45:53;10.89;76.87
76239;SHT30;65043;48.392;-4.472;2023-02-10T01:48:19;10.87;76.71
76239;SHT30;65043;48.392;-4.472;2023-02-10T01:51:05;10.84;76.92
76239;SHT30;65043;48.392;-4.472;2023-02-10T01:53:31;10.84;76.74
76239;SHT30;65043;48.392;-4.472;2023-02-10T01:56:00;10.84;76.94
76239;SHT30;65043;48.392;-4.472;2023-02-10T01:58:29;10.86;77.02
76239;SHT30;65043;48.392;-4.472;2023-02-10T02:00:56;10.84;77.05
76239;SHT30;65043;48.392;-4.472;2023-02-10T02:03:21;10.87;76.91
76239;SHT30;65043;48.392;-4.472;2023-02-10T02:05:47;10.86;76.93
76239;SHT30;65043;48.392;-4.472;2023-02-10T02:16:05;10.92;76.95
76239;SHT30;65043;48.392;-4.472;2023-02-10T02:32:26;10.96;76.87
76239;SHT30;65043;48.392;-4.472;2023-02-10T02:35:03;10.93;76.86
76239;SHT30;65043;48.392;-4.472;2023-02-10T02:37:31;10.93;76.68
76239;SHT30;65043;48.392;-4.472;2023-02-10T02:39:58;10.93;76.83
76239;SHT30;65043;48.392;-4.472;2023-02-10T02:45:16;10.94;77.03
76239;SHT30;65043;48.392;-4.472;2023-02-10T02:50:55;10.93;77.00
76239;SHT30;65043;48.392;-4.472;2023-02-10T02:53:32;10.94;76.92
76239;SHT30;65043;48.392;-4.472;2023-02-10T02:59:08;10.94;76.78
76239;SHT30;65043;48.392;-4.472;2023-02-10T03:01:39;10.94;76.82
76239;SHT30;65043;48.392;-4.472;2023-02-10T03:04:07;10.93;76.83
76239;SHT30;65043;48.392;-4.472;2023-02-10T03:06:35;10.93;77.11
76239;SHT30;65043;48.392;-4.472;2023-02-10T03:09:00;10.93;77.09
76239;SHT30;65043;48.392;-4.472;2023-02-10T03:11:26;10.94;77.03
76239;SHT30;65043;48.392;-4.472;2023-02-10T03:13:51;10.93;76.95
76239;SHT30;65043;48.392;-4.472;2023-02-10T03:16:16;10.94;77.06
76239;SHT30;65043;48.392;-4.472;2023-02-10T03:18:42;10.93;76.96
76239;SHT30;65043;48.392;-4.472;2023-02-10T03:21:07;10.96;77.14
76239;SHT30;65043;48.392;-4.472;2023-02-10T03:23:33;10.97;77.09
76239;SHT30;65043;48.392;-4.472;2023-02-10T03:25:59;10.92;77.13
76239;SHT30;65043;48.392;-4.472;2023-02-10T03:28:25;10.93;77.09
76239;SHT30;65043;48.392;-4.472;2023-02-10T03:30:51;10.92;77.09
76239;SHT30;65043;48.392;-4.472;2023-02-10T03:33:17;10.90;77.18
76239;SHT30;65043;48.392;-4.472;2023-02-10T03:35:44;10.92;77.12
76239;SHT30;65043;48.392;-4.472;2023-02-10T03:38:09;10.92;77.04
76239;SHT30;65043;48.392;-4.472;2023-02-10T03:40:35;10.94;77.16
76239;SHT30;65043;48.392;-4.472;2023-02-10T03:43:01;10.94;77.01
76239;SHT30;65043;48.392;-4.472;2023-02-10T03:45:26;10.90;77.04
76239;SHT30;65043;48.392;-4.472;2023-02-10T03:47:52;10.86;77.22
76239;SHT30;65043;48.392;-4.472;2023-02-10T03:50:17;10.89;77.14
76239;SHT30;65043;48.392;-4.472;2023-02-10T03:52:42;10.87;77.28
76239;SHT30;65043;48.392;-4.472;2023-02-10T03:55:08;10.87;77.22
76239;SHT30;65043;48.392;-4.472;2023-02-10T03:57:33;10.92;77.29
76239;SHT30;65043;48.392;-4.472;2023-02-10T03:59:59;10.90;77.02
76239;SHT30;65043;48.392;-4.472;2023-02-10T04:02:24;10.87;77.26
76239;SHT30;65043;48.392;-4.472;2023-02-10T04:04:50;10.90;77.22
76239;SHT30;65043;48.392;-4.472;2023-02-10T04:07:15;10.89;77.21
76239;SHT30;65043;48.392;-4.472;2023-02-10T04:09:40;10.87;77.32
76239;SHT30;65043;48.392;-4.472;2023-02-10T04:12:06;10.87;77.37
76239;SHT30;65043;48.392;-4.472;2023-02-10T04:14:31;10.86;77.41
76239;SHT30;65043;48.392;-4.472;2023-02-10T04:16:57;10.86;77.37
76239;SHT30;65043;48.392;-4.472;2023-02-10T04:19:22;10.89;77.46
76239;SHT30;65043;48.392;-4.472;2023-02-10T04:21:47;10.90;77.45
76239;SHT30;65043;48.392;-4.472;2023-02-10T04:24:13;10.92;77.30
76239;SHT30;65043;48.392;-4.472;2023-02-10T04:26:39;10.90;77.38
76239;SHT30;65043;48.392;-4.472;2023-02-10T04:29:04;10.90;77.23
76239;SHT30;65043;48.392;-4.472;2023-02-10T04:31:30;10.93;77.31
76239;SHT30;65043;48.392;-4.472;2023-02-10T04:33:55;10.93;77.41
76239;SHT30;65043;48.392;-4.472;2023-02-10T04:36:20;10.92;77.47
76239;SHT30;65043;48.392;-4.472;2023-02-10T04:38:46;10.92;77.33
76239;SHT30;65043;48.392;-4.472;2023-02-10T04:41:11;10.93;77.49
76239;SHT30;65043;48.392;-4.472;2023-02-10T04:43:37;10.93;77.22
76239;SHT30;65043;48.392;-4.472;2023-02-10T04:46:02;10.96;77.60
76239;SHT30;65043;48.392;-4.472;2023-02-10T04:48:29;10.97;77.52
76239;SHT30;65043;48.392;-4.472;2023-02-10T04:50:55;11.00;77.36
76239;SHT30;65043;48.392;-4.472;2023-02-10T04:53:20;11.01;77.43
76239;SHT30;65043;48.392;-4.472;2023-02-10T04:55:46;11.00;77.55
76239;SHT30;65043;48.392;-4.472;2023-02-10T04:58:11;10.99;77.47
76239;SHT30;65043;48.392;-4.472;2023-02-10T05:00:37;10.97;77.43
76239;SHT30;65043;48.392;-4.472;2023-02-10T05:03:02;10.97;77.62
76239;SHT30;65043;48.392;-4.472;2023-02-10T05:05:27;10.94;77.46
76239;SHT30;65043;48.392;-4.472;2023-02-10T05:07:53;10.94;78.00
76239;SHT30;65043;48.392;-4.472;2023-02-10T05:10:19;10.97;77.54
76239;SHT30;65043;48.392;-4.472;2023-02-10T05:12:44;10.96;77.79
76239;SHT30;65043;48.392;-4.472;2023-02-10T05:15:10;10.96;77.89
76239;SHT30;65043;48.392;-4.472;2023-02-10T05:17:38;11.00;77.78
76239;SHT30;65043;48.392;-4.472;2023-02-10T05:20:03;11.00;78.03
76239;SHT30;65043;48.392;-4.472;2023-02-10T05:22:29;10.99;78.03
76239;SHT30;65043;48.392;-4.472;2023-02-10T05:24:57;11.01;77.82
76239;SHT30;65043;48.392;-4.472;2023-02-10T05:27:26;11.03;77.89
76239;SHT30;65043;48.392;-4.472;2023-02-10T05:29:51;11.06;77.93
76239;SHT30;65043;48.392;-4.472;2023-02-10T05:32:17;11.08;77.87
76239;SHT30;65043;48.392;-4.472;2023-02-10T05:34:42;11.06;77.50
76239;SHT30;65043;48.392;-4.472;2023-02-10T05:37:08;11.03;77.64
76239;SHT30;65043;48.392;-4.472;2023-02-10T05:39:33;11.01;77.73
76239;SHT30;65043;48.392;-4.472;2023-02-10T05:41:59;11.01;78.09
76239;SHT30;65043;48.392;-4.472;2023-02-10T05:44:26;11.00;77.77
76239;SHT30;65043;48.392;-4.472;2023-02-10T05:46:51;11.01;77.93
76239;SHT30;65043;48.392;-4.472;2023-02-10T05:49:17;10.96;78.01
76239;SHT30;65043;48.392;-4.472;2023-02-10T05:51:44;10.93;78.23
76239;SHT30;65043;48.392;-4.472;2023-02-10T05:54:10;10.96;78.01
76239;SHT30;65043;48.392;-4.472;2023-02-10T05:56:35;10.93;78.03
76239;SHT30;65043;48.392;-4.472;2023-02-10T05:59:01;10.97;78.19
76239;SHT30;65043;48.392;-4.472;2023-02-10T06:01:27;10.94;78.19
76239;SHT30;65043;48.392;-4.472;2023-02-10T06:03:52;10.94;78.04
76239;SHT30;65043;48.392;-4.472;2023-02-10T06:06:18;10.94;78.10
76239;SHT30;65043;48.392;-4.472;2023-02-10T06:08:43;10.96;78.03
76239;SHT30;65043;48.392;-4.472;2023-02-10T06:11:08;10.94;78.08
76239;SHT30;65043;48.392;-4.472;2023-02-10T06:13:34;10.96;78.08
76239;SHT30;65043;48.392;-4.472;2023-02-10T06:16:00;10.96;78.12
76239;SHT30;65043;48.392;-4.472;2023-02-10T06:18:30;10.97;77.92
76239;SHT30;65043;48.392;-4.472;2023-02-10T06:20:56;10.96;78.17
76239;SHT30;65043;48.392;-4.472;2023-02-10T06:23:23;10.97;77.84
76239;SHT30;65043;48.392;-4.472;2023-02-10T06:25:49;10.96;77.84
76239;SHT30;65043;48.392;-4.472;2023-02-10T06:28:20;10.96;77.92
76239;SHT30;65043;48.392;-4.472;2023-02-10T06:30:46;10.96;77.95
76239;SHT30;65043;48.392;-4.472;2023-02-10T06:33:11;10.97;77.95
76239;SHT30;65043;48.392;-4.472;2023-02-10T06:35:36;11.01;77.75
76239;SHT30;65043;48.392;-4.472;2023-02-10T06:38:02;11.00;77.78
76239;SHT30;65043;48.392;-4.472;2023-02-10T06:40:27;11.03;77.64
76239;SHT30;65043;48.392;-4.472;2023-02-10T06:42:53;10.99;77.78
76239;SHT30;65043;48.392;-4.472;2023-02-10T06:45:18;10.99;77.60
76239;SHT30;65043;48.392;-4.472;2023-02-10T06:47:44;11.01;77.62
76239;SHT30;65043;48.392;-4.472;2023-02-10T06:50:09;11.04;77.68
76239;SHT30;65043;48.392;-4.472;2023-02-10T06:52:35;11.03;77.58
76239;SHT30;65043;48.392;-4.472;2023-02-10T06:55:05;11.03;77.34
76239;SHT30;65043;48.392;-4.472;2023-02-10T06:57:31;11.01;77.58
76239;SHT30;65043;48.392;-4.472;2023-02-10T06:59:56;11.01;77.65
76239;SHT30;65043;48.392;-4.472;2023-02-10T07:02:24;11.03;77.78
76239;SHT30;65043;48.392;-4.472;2023-02-10T07:04:50;11.03;77.76
76239;SHT30;65043;48.392;-4.472;2023-02-10T07:07:15;11.04;77.75
76239;SHT30;65043;48.392;-4.472;2023-02-10T07:09:40;11.10;77.52
76239;SHT30;65043;48.392;-4.472;2023-02-10T07:12:06;11.11;77.45
76239;SHT30;65043;48.392;-4.472;2023-02-10T07:14:31;11.11;77.17
76239;SHT30;65043;48.392;-4.472;2023-02-10T07:16:57;11.11;77.41
76239;SHT30;65043;48.392;-4.472;2023-02-10T07:19:22;11.14;77.38
76239;SHT30;65043;48.392;-4.472;2023-02-10T07:21:47;11.15;77.50
76239;SHT30;65043;48.392;-4.472;2023-02-10T07:24:13;11.14;77.27
76239;SHT30;65043;48.392;-4.472;2023-02-10T07:26:40;11.13;77.54
76239;SHT30;65043;48.392;-4.472;2023-02-10T07:29:05;11.14;77.29
76239;SHT30;65043;48.392;-4.472;2023-02-10T07:31:31;11.13;77.45
76239;SHT30;65043;48.392;-4.472;2023-02-10T07:34:00;11.13;78.03
76239;SHT30;65043;48.392;-4.472;2023-02-10T07:36:26;11.11;77.83
76239;SHT30;65043;48.392;-4.472;2023-02-10T07:38:51;11.13;77.91
76239;SHT30;65043;48.392;-4.472;2023-02-10T07:41:16;11.10;78.17
76239;SHT30;65043;48.392;-4.472;2023-02-10T07:43:42;11.10;78.13
76239;SHT30;65043;48.392;-4.472;2023-02-10T07:46:07;11.10;78.19
76239;SHT30;65043;48.392;-4.472;2023-02-10T07:48:32;11.04;78.19
76239;SHT30;65043;48.392;-4.472;2023-02-10T07:50:58;11.06;78.45
76239;SHT30;65043;48.392;-4.472;2023-02-10T07:53:23;11.04;78.40
76239;SHT30;65043;48.392;-4.472;2023-02-10T07:55:49;11.03;78.41
76239;SHT30;65043;48.392;-4.472;2023-02-10T07:58:14;11.01;78.51
76239;SHT30;65043;48.392;-4.472;2023-02-10T08:00:40;11.03;78.51
76239;SHT30;65043;48.392;-4.472;2023-02-10T08:03:05;11.03;78.49
76239;SHT30;65043;48.392;-4.472;2023-02-10T08:05:31;11.04;78.50
76239;SHT30;65043;48.392;-4.472;2023-02-10T08:07:56;11.03;78.43
76239;SHT30;65043;48.392;-4.472;2023-02-10T08:10:22;11.04;78.76
76239;SHT30;65043;48.392;-4.472;2023-02-10T08:12:48;11.04;78.63
76239;SHT30;65043;48.392;-4.472;2023-02-10T08:15:13;11.04;78.83
76239;SHT30;65043;48.392;-4.472;2023-02-10T08:17:42;11.03;78.72
76239;SHT30;65043;48.392;-4.472;2023-02-10T08:20:08;11.06;79.04
76239;SHT30;65043;48.392;-4.472;2023-02-10T08:22:34;11.07;78.94
76239;SHT30;65043;48.392;-4.472;2023-02-10T08:24:59;11.06;79.10
76239;SHT30;65043;48.392;-4.472;2023-02-10T08:27:25;11.07;78.95
76239;SHT30;65043;48.392;-4.472;2023-02-10T08:29:50;11.08;78.67
76239;SHT30;65043;48.392;-4.472;2023-02-10T08:32:16;11.10;78.72
76239;SHT30;65043;48.392;-4.472;2023-02-10T08:34:47;11.14;78.57
76239;SHT30;65043;48.392;-4.472;2023-02-10T08:37:13;11.13;78.84
76239;SHT30;65043;48.392;-4.472;2023-02-10T08:39:39;11.15;79.06
76239;SHT30;65043;48.392;-4.472;2023-02-10T08:42:05;11.20;78.61
76239;SHT30;65043;48.392;-4.472;2023-02-10T08:44:30;11.20;78.70
76239;SHT30;65043;48.392;-4.472;2023-02-10T08:46:56;11.20;79.10
76239;SHT30;65043;48.392;-4.472;2023-02-10T08:49:21;11.20;78.76
76239;SHT30;65043;48.392;-4.472;2023-02-10T08:51:50;11.17;78.83
76239;SHT30;65043;48.392;-4.472;2023-02-10T08:54:15;11.20;78.97
76239;SHT30;65043;48.392;-4.472;2023-02-10T08:56:40;11.25;78.65
76239;SHT30;65043;48.392;-4.472;2023-02-10T08:59:06;11.27;78.71
76239;SHT30;65043;48.392;-4.472;2023-02-10T09:01:31;11.30;78.30
76239;SHT30;65043;48.392;-4.472;2023-02-10T09:03:57;11.34;78.63
76239;SHT30;65043;48.392;-4.472;2023-02-10T09:06:35;11.38;78.46
76239;SHT30;65043;48.392;-4.472;2023-02-10T09:09:11;11.44;77.99
76239;SHT30;65043;48.392;-4.472;2023-02-10T09:11:38;11.48;77.44
76239;SHT30;65043;48.392;-4.472;2023-02-10T09:14:03;11.50;77.92
76239;SHT30;65043;48.392;-4.472;2023-02-10T09:16:29;11.50;77.60
76239;SHT30;65043;48.392;-4.472;2023-02-10T09:18:54;11.48;77.35
76239;SHT30;65043;48.392;-4.472;2023-02-10T09:21:20;11.52;77.48
76239;SHT30;65043;48.392;-4.472;2023-02-10T09:23:45;11.48;77.42
76239;SHT30;65043;48.392;-4.472;2023-02-10T09:26:11;11.45;77.43
76239;SHT30;65043;48.392;-4.472;2023-02-10T09:28:37;11.45;77.44
76239;SHT30;65043;48.392;-4.472;2023-02-10T09:31:06;11.45;77.52
76239;SHT30;65043;48.392;-4.472;2023-02-10T09:33:33;11.42;77.38
76239;SHT30;65043;48.392;-4.472;2023-02-10T09:35:58;11.38;77.77
76239;SHT30;65043;48.392;-4.472;2023-02-10T09:38:24;11.38;77.63
76239;SHT30;65043;48.392;-4.472;2023-02-10T09:52:12;11.68;77.76
76239;SHT30;65043;48.392;-4.472;2023-02-10T09:54:40;11.71;77.61
76239;SHT30;65043;48.392;-4.472;2023-02-10T09:57:37;11.71;77.34
76239;SHT30;65043;48.392;-4.472;2023-02-10T10:00:05;11.63;77.24
76239;SHT30;65043;48.392;-4.472;2023-02-10T10:02:47;11.65;77.17
76239;SHT30;65043;48.392;-4.472;2023-02-10T10:05:21;11.62;76.99
76239;SHT30;65043;48.392;-4.472;2023-02-10T10:07:50;11.63;77.39
76239;SHT30;65043;48.392;-4.472;2023-02-10T10:10:37;11.65;77.34
76239;SHT30;65043;48.392;-4.472;2023-02-10T10:13:13;11.69;77.22
76239;SHT30;65043;48.392;-4.472;2023-02-10T10:21:46;11.76;77.35
76239;SHT30;65043;48.392;-4.472;2023-02-10T10:27:31;11.82;77.05
76239;SHT30;65043;48.392;-4.472;2023-02-10T10:30:06;11.85;77.17
76239;SHT30;65043;48.392;-4.472;2023-02-10T10:32:53;11.86;76.94
76239;SHT30;65043;48.392;-4.472;2023-02-10T10:35:30;11.90;76.98
76239;SHT30;65043;48.392;-4.472;2023-02-10T10:37:57;11.92;76.93
76239;SHT30;65043;48.392;-4.472;2023-02-10T10:40:27;11.94;76.97
76239;SHT30;65043;48.392;-4.472;2023-02-10T10:42:56;11.96;77.01
76239;SHT30;65043;48.392;-4.472;2023-02-10T10:45:42;11.96;77.07
76239;SHT30;65043;48.392;-4.472;2023-02-10T10:50:39;12.04;76.97
76239;SHT30;65043;48.392;-4.472;2023-02-10T10:53:25;12.12;76.91
76239;SHT30;65043;48.392;-4.472;2023-02-10T10:55:56;12.14;76.81
76239;SHT30;65043;48.392;-4.472;2023-02-10T10:58:26;12.19;76.61
76239;SHT30;65043;48.392;-4.472;2023-02-10T11:00:57;12.22;76.72
76239;SHT30;65043;48.392;-4.472;2023-02-10T11:03:23;12.23;76.67
76239;SHT30;65043;48.392;-4.472;2023-02-10T11:11:42;12.33;76.07
76239;SHT30;65043;48.392;-4.472;2023-02-10T11:22:28;12.53;75.62
76239;SHT30;65043;48.392;-4.472;2023-02-10T11:24:59;12.58;75.37
76239;SHT30;65043;48.392;-4.472;2023-02-10T11:27:25;12.58;75.25
76239;SHT30;65043;48.392;-4.472;2023-02-10T11:29:56;12.61;75.13
76239;SHT30;65043;48.392;-4.472;2023-02-10T11:32:24;12.62;75.20
76239;SHT30;65043;48.392;-4.472;2023-02-10T11:34:53;12.64;74.95
76239;SHT30;65043;48.392;-4.472;2023-02-10T11:37:27;12.64;74.59
76239;SHT30;65043;48.392;-4.472;2023-02-10T11:39:54;12.65;74.65
76239;SHT30;65043;48.392;-4.472;2023-02-10T11:42:23;12.61;74.19
76239;SHT30;65043;48.392;-4.472;2023-02-10T11:47:35;12.61;74.35
76239;SHT30;65043;48.392;-4.472;2023-02-10T11:50:01;12.58;74.35
76239;SHT30;65043;48.392;-4.472;2023-02-10T11:52:28;12.58;74.42
76239;SHT30;65043;48.392;-4.472;2023-02-10T11:54:58;12.60;74.21
76239;SHT30;65043;48.392;-4.472;2023-02-10T11:57:52;12.57;74.35
76239;SHT30;65043;48.392;-4.472;2023-02-10T12:01:21;12.58;74.20
76239;SHT30;65043;48.392;-4.472;2023-02-10T12:03:53;12.60;74.19
76239;SHT30;65043;48.392;-4.472;2023-02-10T12:06:32;12.58;74.03
76239;SHT30;65043;48.392;-4.472;2023-02-10T12:24:02;12.80;74.14
76239;SHT30;65043;48.392;-4.472;2023-02-10T12:26:40;12.85;74.01
76239;SHT30;65043;48.392;-4.472;2023-02-10T12:53:48;13.16;73.35
76239;SHT30;65043;48.392;-4.472;2023-02-10T12:56:25;13.22;73.26
76239;SHT30;65043;48.392;-4.472;2023-02-10T12:58:57;13.20;73.25
76239;SHT30;65043;48.392;-4.472;2023-02-10T13:01:31;13.26;73.22
76239;SHT30;65043;48.392;-4.472;2023-02-10T13:06:46;13.30;72.72
76239;SHT30;65043;48.392;-4.472;2023-02-10T13:09:39;13.32;72.73
76239;SHT30;65043;48.392;-4.472;2023-02-10T13:12:10;13.32;71.82
76239;SHT30;65043;48.392;-4.472;2023-02-10T13:14:39;13.33;71.46
76239;SHT30;65043;48.392;-4.472;2023-02-10T13:17:05;13.33;70.89
76239;SHT30;65043;48.392;-4.472;2023-02-10T13:19:37;13.33;70.79
76239;SHT30;65043;48.392;-4.472;2023-02-10T13:22:10;13.35;70.26
76239;SHT30;65043;48.392;-4.472;2023-02-10T13:35:52;13.36;68.96
76239;SHT30;65043;48.392;-4.472;2023-02-10T13:38:20;13.35;69.45
76239;SHT30;65043;48.392;-4.472;2023-02-10T13:40:54;13.36;70.18
76239;SHT30;65043;48.392;-4.472;2023-02-10T13:43:45;13.39;71.02
76239;SHT30;65043;48.392;-4.472;2023-02-10T13:46:25;13.36;71.39
76239;SHT30;65043;48.392;-4.472;2023-02-10T13:48:57;13.36;71.62
76239;SHT30;65043;48.392;-4.472;2023-02-10T13:51:33;13.36;70.97
76239;SHT30;65043;48.392;-4.472;2023-02-10T13:53:59;13.33;70.45
76239;SHT30;65043;48.392;-4.472;2023-02-10T13:56:26;13.33;70.79
76239;SHT30;65043;48.392;-4.472;2023-02-10T14:06:45;13.38;71.14
76239;SHT30;65043;48.392;-4.472;2023-02-10T14:12:00;13.42;70.67
76239;SHT30;65043;48.392;-4.472;2023-02-10T14:17:00;13.44;70.02
76239;SHT30;65043;48.392;-4.472;2023-02-10T14:19:32;13.42;69.98
76239;SHT30;65043;48.392;-4.472;2023-02-10T14:21:58;13.43;69.85
76239;SHT30;65043;48.392;-4.472;2023-02-10T14:24:30;13.49;69.99
76239;SHT30;65043;48.392;-4.472;2023-02-10T14:27:00;13.52;69.72
76239;SHT30;65043;48.392;-4.472;2023-02-10T14:29:28;13.54;69.34
76239;SHT30;65043;48.392;-4.472;2023-02-10T14:32:00;13.54;69.45
76239;SHT30;65043;48.392;-4.472;2023-02-10T14:34:34;13.56;69.59
76239;SHT30;65043;48.392;-4.472;2023-02-10T14:39:39;13.52;69.50
76239;SHT30;65043;48.392;-4.472;2023-02-10T14:42:06;13.50;69.27
76239;SHT30;65043;48.392;-4.472;2023-02-10T14:44:38;13.50;68.93
76239;SHT30;65043;48.392;-4.472;2023-02-10T14:47:05;13.52;69.00
76239;SHT30;65043;48.392;-4.472;2023-02-10T14:49:30;13.49;69.16
76239;SHT30;65043;48.392;-4.472;2023-02-10T14:52:02;13.49;69.46
76239;SHT30;65043;48.392;-4.472;2023-02-10T14:54:28;13.44;69.64
76239;SHT30;65043;48.392;-4.472;2023-02-10T14:59:31;13.36;70.24
76239;SHT30;65043;48.392;-4.472;2023-02-10T15:02:04;13.40;70.54
76239;SHT30;65043;48.392;-4.472;2023-02-10T15:04:29;13.43;70.51
76239;SHT30;65043;48.392;-4.472;2023-02-10T15:06:56;13.39;70.47
76239;SHT30;65043;48.392;-4.472;2023-02-10T15:09:31;13.38;70.22
76239;SHT30;65043;48.392;-4.472;2023-02-10T15:12:04;13.40;70.45
76239;SHT30;65043;48.392;-4.472;2023-02-10T15:14:41;13.39;70.18
76239;SHT30;65043;48.392;-4.472;2023-02-10T15:17:13;13.42;70.29
76239;SHT30;65043;48.392;-4.472;2023-02-10T15:20:02;13.44;70.26
76239;SHT30;65043;48.392;-4.472;2023-02-10T15:22:38;13.46;69.51
76239;SHT30;65043;48.392;-4.472;2023-02-10T15:31:13;13.38;69.13
76239;SHT30;65043;48.392;-4.472;2023-02-10T15:38:44;13.42;69.14
76239;SHT30;65043;48.392;-4.472;2023-02-10T15:43:54;13.44;68.27
76239;SHT30;65043;48.392;-4.472;2023-02-10T15:46:22;13.50;68.21
76239;SHT30;65043;48.392;-4.472;2023-02-10T15:48:48;13.42;67.38
76239;SHT30;65043;48.392;-4.472;2023-02-10T15:51:23;13.35;67.62
76239;SHT30;65043;48.392;-4.472;2023-02-10T15:53:50;13.33;67.38
76239;SHT30;65043;48.392;-4.472;2023-02-10T15:56:16;13.33;67.40
76239;SHT30;65043;48.392;-4.472;2023-02-10T15:58:42;13.35;67.41
76239;SHT30;65043;48.392;-4.472;2023-02-10T16:01:08;13.35;67.57
76239;SHT30;65043;48.392;-4.472;2023-02-10T16:03:34;13.35;66.98
76239;SHT30;65043;48.392;-4.472;2023-02-10T16:05:59;13.36;67.17
76239;SHT30;65043;48.392;-4.472;2023-02-10T16:08:27;13.36;67.29
76239;SHT30;65043;48.392;-4.472;2023-02-10T16:10:54;13.39;67.05
76239;SHT30;65043;48.392;-4.472;2023-02-10T16:13:19;13.40;67.16
76239;SHT30;65043;48.392;-4.472;2023-02-10T16:15:46;13.33;66.89
76239;SHT30;65043;48.392;-4.472;2023-02-10T16:18:18;13.32;67.20
76239;SHT30;65043;48.392;-4.472;2023-02-10T16:20:45;13.32;67.08
76239;SHT30;65043;48.392;-4.472;2023-02-10T16:23:13;13.30;66.84
76239;SHT30;65043;48.392;-4.472;2023-02-10T16:25:39;13.30;66.78
76239;SHT30;65043;48.392;-4.472;2023-02-10T16:28:06;13.27;66.58
76239;SHT30;65043;48.392;-4.472;2023-02-10T16:30:32;13.29;66.82
76239;SHT30;65043;48.392;-4.472;2023-02-10T16:32:59;13.29;67.49
76239;SHT30;65043;48.392;-4.472;2023-02-10T16:35:25;13.30;67.28
76239;SHT30;65043;48.392;-4.472;2023-02-10T16:37:51;13.32;67.00
76239;SHT30;65043;48.392;-4.472;2023-02-10T16:40:28;13.32;66.72
76239;SHT30;65043;48.392;-4.472;2023-02-10T16:42:54;13.32;66.64
76239;SHT30;65043;48.392;-4.472;2023-02-10T16:45:22;13.32;66.73
76239;SHT30;65043;48.392;-4.472;2023-02-10T16:47:48;13.29;66.69
76239;SHT30;65043;48.392;-4.472;2023-02-10T16:50:41;13.27;66.22
76239;SHT30;65043;48.392;-4.472;2023-02-10T16:53:06;13.27;66.48
76239;SHT30;65043;48.392;-4.472;2023-02-10T16:55:36;13.27;66.38
76239;SHT30;65043;48.392;-4.472;2023-02-10T16:58:02;13.26;66.17
76239;SHT30;65043;48.392;-4.472;2023-02-10T17:00:28;13.22;66.17
76239;SHT30;65043;48.392;-4.472;2023-02-10T17:02:53;13.18;66.01
76239;SHT30;65043;48.392;-4.472;2023-02-10T17:05:20;13.15;66.08
76239;SHT30;65043;48.392;-4.472;2023-02-10T17:07:47;13.13;66.21
76239;SHT30;65043;48.392;-4.472;2023-02-10T17:10:21;13.13;66.22
76239;SHT30;65043;48.392;-4.472;2023-02-10T17:12:47;13.13;66.16
76239;SHT30;65043;48.392;-4.472;2023-02-10T17:15:13;13.16;66.22
76239;SHT30;65043;48.392;-4.472;2023-02-10T17:17:39;13.16;66.06
76239;SHT30;65043;48.392;-4.472;2023-02-10T17:20:06;13.20;66.21
76239;SHT30;65043;48.392;-4.472;2023-02-10T17:22:32;13.18;66.23
76239;SHT30;65043;48.392;-4.472;2023-02-10T17:24:58;13.20;66.22
76239;SHT30;65043;48.392;-4.472;2023-02-10T17:27:23;13.19;66.26
76239;SHT30;65043;48.392;-4.472;2023-02-10T17:29:50;13.20;66.53
76239;SHT30;65043;48.392;-4.472;2023-02-10T17:32:16;13.22;66.33
76239;SHT30;65043;48.392;-4.472;2023-02-10T17:34:41;13.23;66.43
76239;SHT30;65043;48.392;-4.472;2023-02-10T17:37:07;13.23;66.40
76239;SHT30;65043;48.392;-4.472;2023-02-10T17:39:35;13.23;66.79
76239;SHT30;65043;48.392;-4.472;2023-02-10T17:42:07;13.22;67.10
76239;SHT30;65043;48.392;-4.472;2023-02-10T17:44:33;13.22;66.93
76239;SHT30;65043;48.392;-4.472;2023-02-10T17:47:00;13.24;67.00
76239;SHT30;65043;48.392;-4.472;2023-02-10T17:49:29;13.22;66.94
76239;SHT30;65043;48.392;-4.472;2023-02-10T17:51:56;13.19;67.18
76239;SHT30;65043;48.392;-4.472;2023-02-10T17:54:21;13.20;67.16
76239;SHT30;65043;48.392;-4.472;2023-02-10T17:56:47;13.20;67.24